sensor_id;sensor_type;location;lat;lon;timestamp;pressure;altitude;pressure_sealevel;temperature;humidity
57376;BME280;44805;45.048;5.062;2023-02-16T00:04:54;100920.78;;;2.86;90.55
57376;BME280;44805;45.048;5.062;2023-02-16T00:07:20;100874.53;;;2.73;89.40
57376;BME280;44805;45.048;5.062;2023-02-16T00:09:45;101011.63;;;3.47;89.97
57376;BME280;44805;45.048;5.062;2023-02-16T00:12:20;100979.28;;;3.34;89.93
57376;BME280;44805;45.048;5.062;2023-02-16T00:15:19;100905.19;;;2.86;89.78
57376;BME280;44805;45.048;5.062;2023-02-16T00:21:09;100910.53;;;2.82;90.39
57376;BME280;44805;45.048;5.062;2023-02-16T00:23:35;100920.66;;;2.89;90.58
57376;BME280;44805;45.048;5.062;2023-02-16T00:26:01;100930.50;;;3.01;89.89
57376;BME280;44805;45.048;5.062;2023-02-16T00:28:27;101006.84;;;3.38;91.15
57376;BME280;44805;45.048;5.062;2023-02-16T00:30:53;100920.50;;;2.73;91.41
57376;BME280;44805;45.048;5.062;2023-02-16T00:33:20;100879.22;;;2.46;92.54
57376;BME280;44805;45.048;5.062;2023-02-16T00:35:47;100998.00;;;3.04;93.51
57376;BME280;44805;45.048;5.062;2023-02-16T00:38:16;100967.97;;;2.97;93.91
57376;BME280;44805;45.048;5.062;2023-02-16T00:40:42;100935.81;;;2.79;94.45
57376;BME280;44805;45.048;5.062;2023-02-16T00:43:28;100979.38;;;3.13;93.18
57376;BME280;44805;45.048;5.062;2023-02-16T00:49:56;101083.91;;;3.80;92.48
57376;BME280;44805;45.048;5.062;2023-02-16T00:52:39;100927.53;;;2.90;92.62
57376;BME280;44805;45.048;5.062;2023-02-16T00:55:11;100976.53;;;2.99;93.26
57376;BME280;44805;45.048;5.062;2023-02-16T00:58:24;100968.16;;;2.92;94.08
57376;BME280;44805;45.048;5.062;2023-02-16T01:01:15;100942.56;;;2.64;93.59
57376;BME280;44805;45.048;5.062;2023-02-16T01:03:45;100898.97;;;2.50;92.77
57376;BME280;44805;45.048;5.062;2023-02-16T01:06:12;100926.84;;;2.67;93.26
57376;BME280;44805;45.048;5.062;2023-02-16T01:09:08;100890.25;;;2.32;92.71
57376;BME280;44805;45.048;5.062;2023-02-16T01:11:54;100905.25;;;2.26;93.27
57376;BME280;44805;45.048;5.062;2023-02-16T01:14:20;100922.66;;;2.24;93.97
57376;BME280;44805;45.048;5.062;2023-02-16T01:16:50;100910.91;;;1.94;94.52
57376;BME280;44805;45.048;5.062;2023-02-16T01:19:17;100921.59;;;2.09;94.18
57376;BME280;44805;45.048;5.062;2023-02-16T01:21:43;100896.44;;;1.89;94.31
57376;BME280;44805;45.048;5.062;2023-02-16T01:24:08;100875.34;;;1.76;93.44
57376;BME280;44805;45.048;5.062;2023-02-16T01:26:38;100857.66;;;1.43;94.09
57376;BME280;44805;45.048;5.062;2023-02-16T01:29:13;100896.63;;;1.64;94.19
57376;BME280;44805;45.048;5.062;2023-02-16T01:31:39;100902.19;;;1.75;94.12
57376;BME280;44805;45.048;5.062;2023-02-16T01:34:06;101056.84;;;2.67;94.18
57376;BME280;44805;45.048;5.062;2023-02-16T01:36:41;100908.63;;;1.66;94.06
57376;BME280;44805;45.048;5.062;2023-02-16T01:39:11;100887.13;;;1.63;94.23
57376;BME280;44805;45.048;5.062;2023-02-16T01:44:50;101069.44;;;2.76;94.46
57376;BME280;44805;45.048;5.062;2023-02-16T01:47:57;101065.53;;;2.66;94.05
57376;BME280;44805;45.048;5.062;2023-02-16T01:50:44;100891.16;;;1.70;93.74
57376;BME280;44805;45.048;5.062;2023-02-16T01:53:18;101055.28;;;2.63;94.43
57376;BME280;44805;45.048;5.062;2023-02-16T01:56:02;100970.81;;;2.12;94.47
57376;BME280;44805;45.048;5.062;2023-02-16T01:58:36;100878.56;;;1.61;93.91
57376;BME280;44805;45.048;5.062;2023-02-16T02:04:37;100916.59;;;1.62;95.00
57376;BME280;44805;45.048;5.062;2023-02-16T02:07:30;100992.69;;;2.06;95.86
57376;BME280;44805;45.048;5.062;2023-02-16T02:10:09;101008.34;;;2.25;95.90
57376;BME280;44805;45.048;5.062;2023-02-16T02:13:04;101048.84;;;2.51;95.63
57376;BME280;44805;45.048;5.062;2023-02-16T02:15:35;100852.91;;;1.33;95.31
57376;BME280;44805;45.048;5.062;2023-02-16T02:25:10;101037.00;;;2.44;96.02
57376;BME280;44805;45.048;5.062;2023-02-16T02:27:55;100850.53;;;1.26;96.18
57376;BME280;44805;45.048;5.062;2023-02-16T02:30:44;101038.38;;;2.53;96.61
57376;BME280;44805;45.048;5.062;2023-02-16T02:33:16;101039.22;;;2.53;95.27
57376;BME280;44805;45.048;5.062;2023-02-16T02:42:00;100893.38;;;1.37;94.82
57376;BME280;44805;45.048;5.062;2023-02-16T02:50:48;101046.16;;;2.12;95.34
57376;BME280;44805;45.048;5.062;2023-02-16T02:53:44;100841.19;;;0.78;95.86
57376;BME280;44805;45.048;5.062;2023-02-16T02:56:36;100974.97;;;1.51;96.60
57376;BME280;44805;45.048;5.062;2023-02-16T02:59:25;100876.25;;;0.89;95.52
57376;BME280;44805;45.048;5.062;2023-02-16T03:02:15;100888.84;;;0.98;96.27
57376;BME280;44805;45.048;5.062;2023-02-16T03:04:51;100846.84;;;0.90;94.72
57376;BME280;44805;45.048;5.062;2023-02-16T03:07:24;100976.78;;;1.71;95.72
57376;BME280;44805;45.048;5.062;2023-02-16T03:10:20;100845.69;;;0.97;95.52
57376;BME280;44805;45.048;5.062;2023-02-16T03:13:25;100844.91;;;0.95;95.89
57376;BME280;44805;45.048;5.062;2023-02-16T03:15:57;100869.25;;;0.91;95.85
57376;BME280;44805;45.048;5.062;2023-02-16T03:21:57;100966.22;;;1.54;96.47
57376;BME280;44805;45.048;5.062;2023-02-16T03:25:05;101006.91;;;1.54;96.29
57376;BME280;44805;45.048;5.062;2023-02-16T03:27:50;100856.66;;;0.58;97.48
57376;BME280;44805;45.048;5.062;2023-02-16T03:30:42;100883.22;;;0.64;98.72
57376;BME280;44805;45.048;5.062;2023-02-16T03:33:15;100920.44;;;0.85;98.57
57376;BME280;44805;45.048;5.062;2023-02-16T03:35:45;101046.16;;;1.68;98.60
57376;BME280;44805;45.048;5.062;2023-02-16T03:38:11;100866.19;;;0.57;97.59
57376;BME280;44805;45.048;5.062;2023-02-16T03:40:46;101029.34;;;1.55;98.12
57376;BME280;44805;45.048;5.062;2023-02-16T03:45:59;100983.28;;;1.16;96.94
57376;BME280;44805;45.048;5.062;2023-02-16T03:51:46;100842.56;;;-0.06;97.77
57376;BME280;44805;45.048;5.062;2023-02-16T03:54:12;100952.06;;;0.72;97.70
57376;BME280;44805;45.048;5.062;2023-02-16T03:56:38;100978.53;;;1.03;96.18
57376;BME280;44805;45.048;5.062;2023-02-16T03:59:06;100873.34;;;0.27;96.53
57376;BME280;44805;45.048;5.062;2023-02-16T04:01:31;100984.19;;;0.91;96.68
57376;BME280;44805;45.048;5.062;2023-02-16T04:03:57;100834.25;;;0.10;96.75
57376;BME280;44805;45.048;5.062;2023-02-16T04:06:23;100957.91;;;1.00;96.27
57376;BME280;44805;45.048;5.062;2023-02-16T04:08:54;100986.72;;;1.16;96.48
57376;BME280;44805;45.048;5.062;2023-02-16T04:11:19;100834.88;;;0.16;94.95
57376;BME280;44805;45.048;5.062;2023-02-16T04:14:06;100884.34;;;0.34;95.33
57376;BME280;44805;45.048;5.062;2023-02-16T04:16:31;100986.09;;;0.86;96.31
57376;BME280;44805;45.048;5.062;2023-02-16T04:22:05;100906.84;;;0.32;96.45
57376;BME280;44805;45.048;5.062;2023-02-16T04:24:33;100891.69;;;0.21;96.51
57376;BME280;44805;45.048;5.062;2023-02-16T04:27:01;100903.34;;;0.33;97.22
57376;BME280;44805;45.048;5.062;2023-02-16T04:29:30;100845.66;;;0.04;97.17
57376;BME280;44805;45.048;5.062;2023-02-16T04:32:27;101051.25;;;1.47;96.39
57376;BME280;44805;45.048;5.062;2023-02-16T04:34:52;100847.78;;;0.18;96.90
57376;BME280;44805;45.048;5.062;2023-02-16T04:37:20;100875.75;;;0.32;96.99
57376;BME280;44805;45.048;5.062;2023-02-16T04:39:46;100858.19;;;0.16;97.59
57376;BME280;44805;45.048;5.062;2023-02-16T04:42:12;100900.06;;;0.28;98.13
57376;BME280;44805;45.048;5.062;2023-02-16T04:44:37;100855.19;;;-0.22;99.98
57376;BME280;44805;45.048;5.062;2023-02-16T04:47:08;100872.63;;;-0.27;100.00
57376;BME280;44805;45.048;5.062;2023-02-16T04:49:34;100863.88;;;-0.23;100.00
57376;BME280;44805;45.048;5.062;2023-02-16T04:51:59;100992.91;;;0.65;99.35
57376;BME280;44805;45.048;5.062;2023-02-16T04:54:27;100845.06;;;-0.28;99.59
57376;BME280;44805;45.048;5.062;2023-02-16T04:56:53;101001.06;;;0.54;99.35
57376;BME280;44805;45.048;5.062;2023-02-16T04:59:18;100879.38;;;-0.23;98.99
57376;BME280;44805;45.048;5.062;2023-02-16T05:01:51;100899.19;;;-0.22;98.48
57376;BME280;44805;45.048;5.062;2023-02-16T05:04:21;100848.50;;;-0.54;98.70
57376;BME280;44805;45.048;5.062;2023-02-16T05:06:47;100990.22;;;0.43;98.19
57376;BME280;44805;45.048;5.062;2023-02-16T05:09:12;100890.00;;;-0.05;97.16
57376;BME280;44805;45.048;5.062;2023-02-16T05:11:48;100855.59;;;-0.34;97.82
57376;BME280;44805;45.048;5.062;2023-02-16T05:14:35;100942.69;;;0.44;97.33
57376;BME280;44805;45.048;5.062;2023-02-16T05:17:23;100868.84;;;0.07;96.52
57376;BME280;44805;45.048;5.062;2023-02-16T05:19:57;100967.16;;;0.60;97.13
57376;BME280;44805;45.048;5.062;2023-02-16T05:22:29;100990.72;;;0.78;96.78
57376;BME280;44805;45.048;5.062;2023-02-16T05:25:00;100884.88;;;0.18;96.19
57376;BME280;44805;45.048;5.062;2023-02-16T05:27:28;100973.94;;;0.88;96.19
57376;BME280;44805;45.048;5.062;2023-02-16T05:29:59;100995.78;;;0.81;97.25
57376;BME280;44805;45.048;5.062;2023-02-16T05:32:28;100962.63;;;0.42;96.30
57376;BME280;44805;45.048;5.062;2023-02-16T05:34:56;100914.59;;;0.08;97.35
57376;BME280;44805;45.048;5.062;2023-02-16T05:37:22;100865.56;;;-0.23;97.28
57376;BME280;44805;45.048;5.062;2023-02-16T05:39:53;100890.50;;;-0.20;98.60
57376;BME280;44805;45.048;5.062;2023-02-16T05:42:20;100996.00;;;0.51;98.89
57376;BME280;44805;45.048;5.062;2023-02-16T05:44:48;100842.28;;;-0.48;98.97
57376;BME280;44805;45.048;5.062;2023-02-16T05:47:14;100903.03;;;-0.08;98.44
57376;BME280;44805;45.048;5.062;2023-02-16T05:49:39;100895.59;;;-0.17;98.92
57376;BME280;44805;45.048;5.062;2023-02-16T05:52:23;100887.03;;;-0.19;97.40
57376;BME280;44805;45.048;5.062;2023-02-16T05:54:57;100900.38;;;-0.32;98.47
57376;BME280;44805;45.048;5.062;2023-02-16T05:57:28;100900.28;;;-0.29;97.55
57376;BME280;44805;45.048;5.062;2023-02-16T06:00:07;100923.88;;;-0.11;97.05
57376;BME280;44805;45.048;5.062;2023-02-16T06:02:40;100895.81;;;-0.50;97.61
57376;BME280;44805;45.048;5.062;2023-02-16T06:05:08;101008.41;;;0.16;98.25
57376;BME280;44805;45.048;5.062;2023-02-16T06:07:34;100985.59;;;0.01;98.13
57376;BME280;44805;45.048;5.062;2023-02-16T06:10:01;100883.97;;;-0.57;98.76
57376;BME280;44805;45.048;5.062;2023-02-16T06:12:29;100993.69;;;0.17;98.63
57376;BME280;44805;45.048;5.062;2023-02-16T06:14:57;100998.94;;;0.15;98.70
57376;BME280;44805;45.048;5.062;2023-02-16T06:24:04;100968.59;;;-0.33;98.88
57376;BME280;44805;45.048;5.062;2023-02-16T06:26:39;101084.78;;;0.30;99.35
57376;BME280;44805;45.048;5.062;2023-02-16T06:29:14;100927.94;;;-0.84;99.82
57376;BME280;44805;45.048;5.062;2023-02-16T06:35:21;100885.06;;;-0.91;99.92
57376;BME280;44805;45.048;5.062;2023-02-16T06:37:49;101066.66;;;0.03;99.60
57376;BME280;44805;45.048;5.062;2023-02-16T06:40:19;100917.63;;;-0.85;100.00
57376;BME280;44805;45.048;5.062;2023-02-16T06:42:57;100888.81;;;-1.01;100.00
57376;BME280;44805;45.048;5.062;2023-02-16T06:45:31;100903.31;;;-0.97;100.00
57376;BME280;44805;45.048;5.062;2023-02-16T06:48:00;100932.09;;;-0.80;100.00
57376;BME280;44805;45.048;5.062;2023-02-16T06:50:26;100914.19;;;-0.86;100.00
57376;BME280;44805;45.048;5.062;2023-02-16T06:52:52;100908.88;;;-0.81;99.65
57376;BME280;44805;45.048;5.062;2023-02-16T06:55:24;101003.53;;;-0.19;98.60
57376;BME280;44805;45.048;5.062;2023-02-16T06:58:03;101123.41;;;0.37;99.60
57376;BME280;44805;45.048;5.062;2023-02-16T07:24:20;101123.66;;;1.06;95.98
57376;BME280;44805;45.048;5.062;2023-02-16T07:30:41;100958.97;;;0.48;93.22
57376;BME280;44805;45.048;5.062;2023-02-16T10:43:24;101199.84;;;7.23;81.28
57376;BME280;44805;45.048;5.062;2023-02-16T10:46:10;101096.50;;;6.84;79.31
57376;BME280;44805;45.048;5.062;2023-02-16T11:02:44;101071.50;;;7.23;79.15
57376;BME280;44805;45.048;5.062;2023-02-16T11:12:32;101082.06;;;7.91;76.17
57376;BME280;44805;45.048;5.062;2023-02-16T11:15:27;101169.78;;;8.68;76.47
57376;BME280;44805;45.048;5.062;2023-02-16T11:21:49;101170.22;;;8.75;75.48
57376;BME280;44805;45.048;5.062;2023-02-16T11:24:50;101097.25;;;8.26;75.29
57376;BME280;44805;45.048;5.062;2023-02-16T11:27:19;101031.22;;;8.07;76.02
57376;BME280;44805;45.048;5.062;2023-02-16T11:30:13;101152.59;;;9.03;75.20
57376;BME280;44805;45.048;5.062;2023-02-16T11:32:46;101061.06;;;8.58;74.47
57376;BME280;44805;45.048;5.062;2023-02-16T11:39:01;101142.81;;;9.30;74.47
57376;BME280;44805;45.048;5.062;2023-02-16T11:41:35;101140.09;;;9.45;74.90
57376;BME280;44805;45.048;5.062;2023-02-16T11:46:39;101067.88;;;9.25;72.32
57376;BME280;44805;45.048;5.062;2023-02-16T11:51:35;101009.91;;;8.89;72.87
57376;BME280;44805;45.048;5.062;2023-02-16T11:54:16;100965.78;;;8.95;73.60
57376;BME280;44805;45.048;5.062;2023-02-16T11:57:00;100987.34;;;9.37;71.27
57376;BME280;44805;45.048;5.062;2023-02-16T11:59:41;101062.00;;;9.95;71.21
57376;BME280;44805;45.048;5.062;2023-02-16T12:12:50;100972.13;;;9.77;70.02
57376;BME280;44805;45.048;5.062;2023-02-16T12:15:58;101099.16;;;10.62;70.09
57376;BME280;44805;45.048;5.062;2023-02-16T12:44:46;100985.56;;;10.20;70.41
57376;BME280;44805;45.048;5.062;2023-02-16T12:47:24;100990.88;;;10.43;68.03
57376;BME280;44805;45.048;5.062;2023-02-16T13:03:54;100896.56;;;10.26;68.66
57376;BME280;44805;45.048;5.062;2023-02-16T13:09:58;101030.09;;;11.26;66.39
57376;BME280;44805;45.048;5.062;2023-02-16T13:12:59;100892.75;;;10.52;65.90
57376;BME280;44805;45.048;5.062;2023-02-16T13:15:35;100859.72;;;10.37;65.95
57376;BME280;44805;45.048;5.062;2023-02-16T13:18:18;100857.09;;;10.37;64.89
57376;BME280;44805;45.048;5.062;2023-02-16T13:20:51;100898.38;;;10.70;62.49
57376;BME280;44805;45.048;5.062;2023-02-16T13:23:41;101020.38;;;11.38;64.47
57376;BME280;44805;45.048;5.062;2023-02-16T13:39:32;100993.75;;;11.52;63.25
57376;BME280;44805;45.048;5.062;2023-02-16T14:17:57;100773.22;;;10.43;53.97
57376;BME280;44805;45.048;5.062;2023-02-16T14:20:24;100946.81;;;11.35;56.83
57376;BME280;44805;45.048;5.062;2023-02-16T14:23:34;100824.28;;;10.52;57.43
57376;BME280;44805;45.048;5.062;2023-02-16T14:26:26;100804.69;;;10.56;54.88
57376;BME280;44805;45.048;5.062;2023-02-16T14:29:21;100967.59;;;11.49;54.92
57376;BME280;44805;45.048;5.062;2023-02-16T14:40:53;100865.88;;;11.03;53.47
57376;BME280;44805;45.048;5.062;2023-02-16T14:43:43;100890.19;;;11.07;52.63
57376;BME280;44805;45.048;5.062;2023-02-16T15:04:03;100901.69;;;11.06;50.82
57376;BME280;44805;45.048;5.062;2023-02-16T15:07:00;100959.13;;;11.78;48.43
57376;BME280;44805;45.048;5.062;2023-02-16T15:09:31;100795.19;;;10.76;49.37
57376;BME280;44805;45.048;5.062;2023-02-16T15:12:07;100770.81;;;10.52;49.86
57376;BME280;44805;45.048;5.062;2023-02-16T15:23:25;100918.66;;;11.57;52.78
57376;BME280;44805;45.048;5.062;2023-02-16T15:26:00;100838.44;;;11.06;53.44
57376;BME280;44805;45.048;5.062;2023-02-16T15:28:31;100764.34;;;10.56;54.63
57376;BME280;44805;45.048;5.062;2023-02-16T15:31:33;100796.63;;;10.58;55.19
57376;BME280;44805;45.048;5.062;2023-02-16T15:34:09;100772.25;;;10.45;55.16
57376;BME280;44805;45.048;5.062;2023-02-16T15:40:25;100771.03;;;10.60;53.33
57376;BME280;44805;45.048;5.062;2023-02-16T15:49:42;100768.75;;;10.55;54.81
57376;BME280;44805;45.048;5.062;2023-02-16T15:52:46;100918.84;;;11.44;56.85
57376;BME280;44805;45.048;5.062;2023-02-16T15:55:14;100745.34;;;10.41;56.20
57376;BME280;44805;45.048;5.062;2023-02-16T15:57:42;100763.94;;;10.60;54.89
57376;BME280;44805;45.048;5.062;2023-02-16T16:00:16;100747.66;;;10.67;54.04
57376;BME280;44805;45.048;5.062;2023-02-16T16:02:47;100858.78;;;11.15;55.06
57376;BME280;44805;45.048;5.062;2023-02-16T16:05:32;100929.06;;;11.26;56.80
57376;BME280;44805;45.048;5.062;2023-02-16T16:21:24;100914.38;;;11.01;57.10
57376;BME280;44805;45.048;5.062;2023-02-16T16:26:23;100876.72;;;10.67;56.35
57376;BME280;44805;45.048;5.062;2023-02-16T16:28:52;100857.94;;;10.37;57.18
57376;BME280;44805;45.048;5.062;2023-02-16T16:31:38;100776.41;;;9.68;58.26
57376;BME280;44805;45.048;5.062;2023-02-16T16:34:10;100896.59;;;10.37;58.00
57376;BME280;44805;45.048;5.062;2023-02-16T16:36:45;100797.19;;;9.71;58.51
57376;BME280;44805;45.048;5.062;2023-02-16T16:42:06;100828.34;;;9.53;58.47
57376;BME280;44805;45.048;5.062;2023-02-16T16:44:40;100921.88;;;10.04;59.94
57376;BME280;44805;45.048;5.062;2023-02-16T16:47:25;100921.00;;;9.92;60.13
57376;BME280;44805;45.048;5.062;2023-02-16T16:49:56;100916.50;;;9.70;61.02
57376;BME280;44805;45.048;5.062;2023-02-16T16:55:59;100884.84;;;9.00;64.36
57376;BME280;44805;45.048;5.062;2023-02-16T16:58:27;100772.88;;;8.25;65.21
57376;BME280;44805;45.048;5.062;2023-02-16T17:00:52;100873.41;;;8.64;66.70
57376;BME280;44805;45.048;5.062;2023-02-16T17:03:18;100879.59;;;8.63;65.36
57376;BME280;44805;45.048;5.062;2023-02-16T17:06:06;100926.31;;;8.83;67.88
57376;BME280;44805;45.048;5.062;2023-02-16T17:08:33;100744.72;;;7.65;67.60
57376;BME280;44805;45.048;5.062;2023-02-16T17:10:59;100769.56;;;7.59;69.31
57376;BME280;44805;45.048;5.062;2023-02-16T17:13:25;100867.13;;;8.02;68.63
57376;BME280;44805;45.048;5.062;2023-02-16T17:16:08;100839.41;;;7.73;70.24
57376;BME280;44805;45.048;5.062;2023-02-16T17:18:38;100837.41;;;7.64;71.11
57376;BME280;44805;45.048;5.062;2023-02-16T17:21:16;100846.09;;;7.51;70.57
57376;BME280;44805;45.048;5.062;2023-02-16T17:23:42;100943.25;;;8.01;71.31
57376;BME280;44805;45.048;5.062;2023-02-16T17:26:10;100875.25;;;7.59;72.27
57376;BME280;44805;45.048;5.062;2023-02-16T17:28:38;100853.78;;;7.40;72.31
57376;BME280;44805;45.048;5.062;2023-02-16T17:31:05;100849.56;;;7.25;72.19
57376;BME280;44805;45.048;5.062;2023-02-16T17:33:30;100793.69;;;6.84;73.42
57376;BME280;44805;45.048;5.062;2023-02-16T17:39:18;100967.31;;;7.68;74.38
57376;BME280;44805;45.048;5.062;2023-02-16T17:41:43;100915.41;;;7.33;74.29
57376;BME280;44805;45.048;5.062;2023-02-16T17:44:09;100860.53;;;6.90;75.41
57376;BME280;44805;45.048;5.062;2023-02-16T17:46:35;100903.13;;;7.06;75.86
57376;BME280;44805;45.048;5.062;2023-02-16T17:49:00;100792.22;;;6.39;75.50
57376;BME280;44805;45.048;5.062;2023-02-16T17:51:26;100867.28;;;6.80;75.93
57376;BME280;44805;45.048;5.062;2023-02-16T17:53:53;100776.53;;;6.24;76.13
57376;BME280;44805;45.048;5.062;2023-02-16T17:56:21;100801.75;;;6.40;75.49
57376;BME280;44805;45.048;5.062;2023-02-16T17:58:50;100932.47;;;7.11;75.43
57376;BME280;44805;45.048;5.062;2023-02-16T18:01:16;100993.81;;;7.36;77.42
57376;BME280;44805;45.048;5.062;2023-02-16T18:03:42;100874.59;;;6.60;77.87
57376;BME280;44805;45.048;5.062;2023-02-16T18:09:32;100851.53;;;6.52;78.61
57376;BME280;44805;45.048;5.062;2023-02-16T18:11:58;100820.63;;;6.30;78.64
57376;BME280;44805;45.048;5.062;2023-02-16T18:14:23;100962.06;;;6.99;78.34
57376;BME280;44805;45.048;5.062;2023-02-16T18:16:52;100937.50;;;6.73;79.37
57376;BME280;44805;45.048;5.062;2023-02-16T18:19:28;100998.06;;;7.10;78.76
57376;BME280;44805;45.048;5.062;2023-02-16T21:30:09;100983.69;;;3.87;80.81
57376;BME280;44805;45.048;5.062;2023-02-16T21:32:36;100953.06;;;3.56;81.65
57376;BME280;44805;45.048;5.062;2023-02-16T21:35:04;101019.56;;;3.99;81.39
57376;BME280;44805;45.048;5.062;2023-02-16T21:37:34;101072.63;;;4.16;81.66
57376;BME280;44805;45.048;5.062;2023-02-16T21:40:09;101081.59;;;4.27;80.59
57376;BME280;44805;45.048;5.062;2023-02-16T21:42:55;100991.22;;;3.57;81.14
57376;BME280;44805;45.048;5.062;2023-02-16T21:45:24;101131.47;;;4.39;81.56
57376;BME280;44805;45.048;5.062;2023-02-16T21:47:52;100953.94;;;3.37;80.89
57376;BME280;44805;45.048;5.062;2023-02-16T21:50:40;101066.88;;;4.09;82.01
57376;BME280;44805;45.048;5.062;2023-02-16T21:53:36;101150.75;;;4.53;81.43
57376;BME280;44805;45.048;5.062;2023-02-16T21:57:10;100968.44;;;3.43;80.83
57376;BME280;44805;45.048;5.062;2023-02-16T21:59:31;101018.66;;;3.64;82.21
57376;BME280;44805;45.048;5.062;2023-02-16T22:01:58;100970.69;;;3.32;81.27
57376;BME280;44805;45.048;5.062;2023-02-16T22:04:28;100975.69;;;3.36;82.22
57376;BME280;44805;45.048;5.062;2023-02-16T22:06:54;101140.25;;;4.19;81.59
57376;BME280;44805;45.048;5.062;2023-02-16T22:09:57;101139.22;;;4.04;83.29
57376;BME280;44805;45.048;5.062;2023-02-16T22:12:45;101142.53;;;4.07;82.96
57376;BME280;44805;45.048;5.062;2023-02-16T22:15:10;100955.50;;;2.85;83.04
57376;BME280;44805;45.048;5.062;2023-02-16T22:17:47;101139.00;;;4.08;83.86
57376;BME280;44805;45.048;5.062;2023-02-16T22:20:47;100983.34;;;3.20;83.66
57376;BME280;44805;45.048;5.062;2023-02-16T22:26:39;101061.19;;;3.64;83.30
57376;BME280;44805;45.048;5.062;2023-02-16T22:29:15;100968.25;;;3.10;83.16
57376;BME280;44805;45.048;5.062;2023-02-16T22:31:49;100971.56;;;3.13;81.87
57376;BME280;44805;45.048;5.062;2023-02-16T22:34:20;100959.88;;;3.03;82.75
57376;BME280;44805;45.048;5.062;2023-02-16T22:36:49;100953.91;;;3.01;82.37
57376;BME280;44805;45.048;5.062;2023-02-16T22:42:37;100956.91;;;2.92;82.88
57376;BME280;44805;45.048;5.062;2023-02-16T22:45:14;100948.63;;;2.83;82.56
57376;BME280;44805;45.048;5.062;2023-02-16T22:47:49;100980.41;;;2.90;83.81
57376;BME280;44805;45.048;5.062;2023-02-16T22:50:16;100977.72;;;2.92;83.47
57376;BME280;44805;45.048;5.062;2023-02-16T22:56:08;101064.13;;;3.38;83.69
57376;BME280;44805;45.048;5.062;2023-02-16T22:58:37;100970.34;;;2.82;83.63
57376;BME280;44805;45.048;5.062;2023-02-16T23:01:14;100945.94;;;2.66;83.70
57376;BME280;44805;45.048;5.062;2023-02-16T23:04:04;100972.22;;;2.79;84.13
57376;BME280;44805;45.048;5.062;2023-02-16T23:06:55;100989.84;;;2.93;84.36
57376;BME280;44805;45.048;5.062;2023-02-16T23:09:27;101119.47;;;3.62;84.17
57376;BME280;44805;45.048;5.062;2023-02-16T23:11:59;100947.63;;;2.47;84.00
57376;BME280;44805;45.048;5.062;2023-02-16T23:14:26;101081.00;;;3.29;83.93
57376;BME280;44805;45.048;5.062;2023-02-16T23:17:01;100978.31;;;2.38;85.58
57376;BME280;44805;45.048;5.062;2023-02-16T23:19:28;100969.22;;;2.49;85.70
57376;BME280;44805;45.048;5.062;2023-02-16T23:21:59;100981.69;;;2.61;84.01
57376;BME280;44805;45.048;5.062;2023-02-16T23:27:52;100954.28;;;2.33;84.30
57376;BME280;44805;45.048;5.062;2023-02-16T23:30:19;101102.53;;;3.14;85.22
57376;BME280;44805;45.048;5.062;2023-02-16T23:32:47;101080.41;;;3.03;85.08
57376;BME280;44805;45.048;5.062;2023-02-16T23:35:17;101038.03;;;2.81;84.52
57376;BME280;44805;45.048;5.062;2023-02-16T23:37:55;100986.25;;;2.35;85.36
57376;BME280;44805;45.048;5.062;2023-02-16T23:43:49;101072.16;;;2.94;84.57
57376;BME280;44805;45.048;5.062;2023-02-16T23:46:21;101015.88;;;2.52;84.44
57376;BME280;44805;45.048;5.062;2023-02-16T23:49:03;100985.00;;;2.24;85.29
57376;BME280;44805;45.048;5.062;2023-02-16T23:51:33;100986.25;;;2.35;84.09
57376;BME280;44805;45.048;5.062;2023-02-16T23:54:27;101023.41;;;2.17;85.24
57376;BME280;44805;45.048;5.062;2023-02-16T23:56:53;100979.06;;;1.79;86.34
57376;BME280;44805;45.048;5.062;2023-02-16T23:59:19;100979.25;;;1.74;87.80
